Time;durP1;ratioP1;P1;durP2;ratioP2;P2;SDS_P1;SDS_P2;PMS_P1;PMS_P2;Temp;Humidity;BMP_temperature;BMP_pressure;BME280_temperature;BME280_humidity;BME280_pressure;Samples;Min_cycle;Max_cycle;Signal;HPM_P1;HPM_P2
2022/11/14 00:00:00;;;;;;;17.50;9.50;;;4.90;99.90;;;;;;5089563;28;20044;-75
2022/11/14 00:02:26;;;;;;;20.13;10.20;;;4.90;99.90;;;;;;5086329;28;20149;-76
2022/11/14 00:04:52;;;;;;;16.43;9.83;;;4.90;99.90;;;;;;5090597;28;20085;-76
2022/11/14 00:07:18;;;;;;;16.87;8.27;;;4.80;99.90;;;;;;5096334;28;20027;-75
2022/11/14 00:09:43;;;;;;;22.15;10.32;;;4.90;99.90;;;;;;5094460;28;20035;-76
2022/11/14 00:12:10;;;;;;;21.53;10.00;;;4.90;99.90;;;;;;5095702;28;20024;-76
2022/11/14 00:14:36;;;;;;;16.60;9.68;;;4.80;99.90;;;;;;5089240;28;20024;-76
2022/11/14 00:17:03;;;;;;;23.42;10.15;;;4.80;99.90;;;;;;5095280;28;20150;-76
2022/11/14 00:19:29;;;;;;;20.38;10.73;;;4.80;99.90;;;;;;5093406;28;20036;-75
2022/11/14 00:21:55;;;;;;;21.25;10.98;;;4.80;99.90;;;;;;5095059;28;20024;-76
2022/11/14 00:24:20;;;;;;;19.97;9.97;;;4.80;99.90;;;;;;5094698;28;20049;-76
2022/11/14 00:26:46;;;;;;;20.17;9.57;;;4.80;99.90;;;;;;5094963;28;20761;-76
2022/11/14 00:29:14;;;;;;;21.13;10.48;;;4.80;99.90;;;;;;5075777;28;20097;-76
2022/11/14 00:31:39;;;;;;;20.42;10.23;;;4.70;99.90;;;;;;5095009;28;20020;-76
2022/11/14 00:34:05;;;;;;;17.83;10.57;;;4.80;99.90;;;;;;5076826;28;20033;-76
2022/11/14 00:36:31;;;;;;;17.43;10.47;;;4.70;99.90;;;;;;5095438;28;20113;-76
2022/11/14 00:38:57;;;;;;;23.50;12.00;;;4.70;99.90;;;;;;5095193;28;20047;-78
2022/11/14 00:41:22;;;;;;;26.10;11.85;;;4.70;99.90;;;;;;5094945;28;20043;-76
2022/11/14 00:43:48;;;;;;;21.53;11.50;;;4.70;99.90;;;;;;5094830;28;20048;-76
2022/11/14 00:46:14;;;;;;;22.50;11.67;;;4.70;99.90;;;;;;5085334;28;20025;-76
2022/11/14 00:48:39;;;;;;;24.30;11.43;;;4.70;99.90;;;;;;5094821;28;20027;-76
2022/11/14 00:51:05;;;;;;;24.02;12.73;;;4.60;99.90;;;;;;5086655;28;20032;-76
2022/11/14 00:53:31;;;;;;;27.07;13.17;;;4.70;99.90;;;;;;5091960;28;20031;-76
2022/11/14 00:55:56;;;;;;;26.47;13.40;;;4.70;99.90;;;;;;5071290;28;20039;-76
2022/11/14 00:58:22;;;;;;;27.13;13.30;;;4.60;99.90;;;;;;5090473;28;20060;-76
2022/11/14 01:00:48;;;;;;;27.90;13.23;;;4.60;99.90;;;;;;5092331;28;20342;-76
2022/11/14 01:03:14;;;;;;;22.93;12.87;;;4.60;99.90;;;;;;5088741;28;20056;-76
2022/11/14 01:05:44;;;;;;;27.30;14.53;;;4.50;99.90;;;;;;5093092;28;20016;-76
2022/11/14 01:08:10;;;;;;;29.15;13.40;;;4.60;99.90;;;;;;5084782;28;20020;-75
2022/11/14 01:10:44;;;;;;;31.77;14.13;;;4.50;99.90;;;;;;5090419;28;20020;-76
2022/11/14 01:13:10;;;;;;;33.17;14.13;;;4.50;99.90;;;;;;5092126;28;20285;-78
2022/11/14 01:15:44;;;;;;;32.20;13.77;;;4.50;99.90;;;;;;5093734;28;20020;-76
2022/11/14 01:18:12;;;;;;;29.35;14.10;;;4.50;99.90;;;;;;5090307;28;20322;-76
2022/11/14 01:20:40;;;;;;;27.98;14.40;;;4.60;99.90;;;;;;5091176;28;20050;-76
2022/11/14 01:23:07;;;;;;;30.23;14.68;;;4.50;99.90;;;;;;5091865;28;20350;-76
2022/11/14 01:25:33;;;;;;;;;;;4.60;99.90;;;;;;5089815;28;20119;-76
2022/11/14 01:27:59;;;;;;;32.33;14.05;;;4.60;99.90;;;;;;5093887;28;19951;-77
2022/11/14 01:30:25;;;;;;;33.47;15.97;;;4.50;99.90;;;;;;5092283;28;20056;-76
2022/11/14 01:32:50;;;;;;;30.33;15.23;;;4.50;99.90;;;;;;5087947;28;20081;-76
2022/11/14 01:35:16;;;;;;;30.77;15.35;;;4.50;99.90;;;;;;5092814;28;20027;-75
2022/11/14 01:37:42;;;;;;;35.90;15.68;;;4.50;99.90;;;;;;5078505;28;20032;-77
2022/11/14 01:40:08;;;;;;;37.50;16.40;;;4.40;99.90;;;;;;5090583;28;20028;-75
2022/11/14 01:42:33;;;;;;;27.30;13.02;;;4.40;99.90;;;;;;5088350;28;20031;-76
2022/11/14 01:44:59;;;;;;;35.47;16.77;;;4.40;99.90;;;;;;5091558;28;20051;-76
2022/11/14 01:47:28;;;;;;;30.20;14.77;;;4.30;99.90;;;;;;5092635;28;20028;-76
2022/11/14 01:49:58;;;;;;;30.20;13.52;;;4.30;99.90;;;;;;5088440;28;20068;-75
2022/11/14 01:52:37;;;;;;;33.85;15.60;;;4.30;99.90;;;;;;5084704;28;20028;-76
2022/11/14 01:55:06;;;;;;;32.42;15.13;;;4.30;99.90;;;;;;5081037;28;20081;-76
2022/11/14 01:57:41;;;;;;;36.08;16.60;;;4.30;99.90;;;;;;5088211;28;20422;-76
2022/11/14 02:00:10;;;;;;;29.50;14.38;;;4.20;99.90;;;;;;5086370;28;20016;-76
2022/11/14 02:02:37;;;;;;;30.52;15.02;;;4.20;99.90;;;;;;5091069;28;20417;-76
2022/11/14 02:05:10;;;;;;;36.28;16.10;;;4.20;99.90;;;;;;5087812;28;20036;-76
2022/11/14 02:07:38;;;;;;;34.22;16.15;;;4.20;99.90;;;;;;5089985;28;20453;-76
2022/11/14 02:10:14;;;;;;;38.22;15.90;;;4.20;99.90;;;;;;5086768;28;20039;-76
2022/11/14 02:12:40;;;;;;;33.85;15.30;;;4.10;99.90;;;;;;5091588;28;20075;-75
2022/11/14 02:15:08;;;;;;;34.67;16.08;;;4.10;99.90;;;;;;5087987;28;20074;-76
2022/11/14 02:17:34;;;;;;;33.33;15.15;;;4.00;99.90;;;;;;5090154;28;20032;-75
2022/11/14 02:20:04;;;;;;;32.72;15.90;;;4.00;99.90;;;;;;5085160;28;20419;-75
2022/11/14 02:22:30;;;;;;;31.45;15.32;;;3.90;99.90;;;;;;5107294;28;20036;-76
2022/11/14 02:24:56;;;;;;;43.28;16.92;;;3.90;99.90;;;;;;5088170;28;20057;-76
2022/11/14 02:27:22;;;;;;;43.43;16.90;;;3.90;99.90;;;;;;5089790;28;20043;-75
2022/11/14 02:29:47;;;;;;;41.23;17.50;;;3.80;99.90;;;;;;5088052;28;20032;-76
2022/11/14 02:32:13;;;;;;;40.80;17.37;;;3.80;99.90;;;;;;5088556;28;20043;-76
2022/11/14 02:34:39;;;;;;;42.13;17.43;;;3.80;99.90;;;;;;5088381;28;20430;-79
2022/11/14 02:37:05;;;;;;;38.30;16.43;;;3.80;99.90;;;;;;5091304;28;20322;-76
2022/11/14 02:39:31;;;;;;;36.85;16.60;;;3.80;99.90;;;;;;5089112;28;20035;-80
2022/11/14 02:41:56;;;;;;;38.10;16.17;;;3.70;99.90;;;;;;5087872;28;20330;-75
2022/11/14 02:44:22;;;;;;;36.70;15.90;;;3.80;99.90;;;;;;5087017;28;20383;-75
2022/11/14 02:46:48;;;;;;;36.43;15.73;;;3.80;99.90;;;;;;5087299;28;20659;-76
2022/11/14 02:49:13;;;;;;;39.77;16.90;;;3.80;99.90;;;;;;5084273;28;20021;-76
2022/11/14 02:51:40;;;;;;;39.60;17.00;;;3.80;99.90;;;;;;5088808;28;20028;-75
2022/11/14 02:54:06;;;;;;;39.42;17.17;;;3.80;99.90;;;;;;5088013;28;20025;-75
2022/11/14 02:56:32;;;;;;;43.05;18.60;;;3.70;99.90;;;;;;5092221;28;20478;-75
2022/11/14 02:58:57;;;;;;;44.70;19.00;;;3.70;99.90;;;;;;5090290;28;20115;-76
2022/11/14 03:01:23;;;;;;;51.67;18.90;;;3.70;99.90;;;;;;5089626;28;20047;-75
2022/11/14 03:03:49;;;;;;;48.80;19.13;;;3.70;99.90;;;;;;5089635;28;20039;-75
2022/11/14 03:06:15;;;;;;;46.47;17.90;;;3.80;99.90;;;;;;5090534;28;20059;-79
2022/11/14 03:08:41;;;;;;;44.72;19.63;;;3.70;99.90;;;;;;5090076;28;20368;-75
2022/11/14 03:11:08;;;;;;;45.63;18.77;;;3.80;99.90;;;;;;5090800;28;20115;-75
2022/11/14 03:13:33;;;;;;;;;;;3.70;99.90;;;;;;5091991;28;20414;-75
2022/11/14 03:16:07;;;;;;;47.78;17.83;;;3.80;99.90;;;;;;5087922;28;20021;-75
2022/11/14 03:18:34;;;;;;;45.03;18.77;;;3.70;99.90;;;;;;5082107;28;20094;-76
2022/11/14 03:21:12;;;;;;;49.78;18.10;;;3.70;99.90;;;;;;5090940;28;20034;-75
2022/11/14 03:23:38;;;;;;;48.83;18.90;;;3.70;99.90;;;;;;5082761;28;20311;-75
2022/11/14 03:26:06;;;;;;;46.97;18.65;;;3.70;99.90;;;;;;5088658;28;20032;-75
2022/11/14 03:28:32;;;;;;;44.70;19.63;;;3.70;99.90;;;;;;5091843;28;20020;-75
2022/11/14 03:30:57;;;;;;;46.63;19.75;;;3.70;99.90;;;;;;5093470;28;20042;-75
2022/11/14 03:33:23;;;;;;;50.53;20.10;;;3.70;99.90;;;;;;5093297;28;20048;-75
2022/11/14 03:35:49;;;;;;;47.37;19.10;;;3.70;99.90;;;;;;5090592;28;20031;-75
2022/11/14 03:38:16;;;;;;;46.65;18.83;;;3.70;99.90;;;;;;5090381;28;20024;-75
2022/11/14 03:40:42;;;;;;;46.85;18.63;;;3.70;99.90;;;;;;5090444;28;20480;-76
2022/11/14 03:43:08;;;;;;;48.67;19.00;;;3.60;99.90;;;;;;5089097;28;20036;-75
2022/11/14 03:45:36;;;;;;;48.60;19.03;;;3.70;99.90;;;;;;5096958;28;20028;-75
2022/11/14 03:48:02;;;;;;;45.60;18.85;;;3.70;99.90;;;;;;5095257;28;20055;-75
2022/11/14 03:50:27;;;;;;;59.75;20.38;;;3.70;99.90;;;;;;5091733;28;20076;-75
2022/11/14 03:52:53;;;;;;;48.50;19.23;;;3.70;99.90;;;;;;5095257;28;20036;-75
2022/11/14 03:55:18;;;;;;;38.50;14.30;;;3.70;99.90;;;;;;5096084;28;20024;-75
2022/11/14 03:57:44;;;;;;;47.80;19.60;;;3.70;99.90;;;;;;5096191;28;20028;-75
2022/11/14 04:00:10;;;;;;;48.33;18.50;;;3.80;99.90;;;;;;5095187;28;20024;-75
2022/11/14 04:02:36;;;;;;;51.70;19.23;;;3.70;99.90;;;;;;5091239;28;20427;-75
2022/11/14 04:05:01;;;;;;;54.23;18.70;;;3.70;99.90;;;;;;5093044;28;20272;-81
2022/11/14 04:07:27;;;;;;;47.83;18.13;;;3.70;99.90;;;;;;5096256;28;20076;-75
2022/11/14 04:09:53;;;;;;;53.33;20.20;;;3.80;99.90;;;;;;5089393;28;20032;-75
2022/11/14 04:12:18;;;;;;;46.77;19.30;;;3.80;99.90;;;;;;5090017;28;20062;-75
2022/11/14 04:14:44;;;;;;;52.17;18.87;;;3.80;99.90;;;;;;5093946;28;20378;-75
2022/11/14 04:17:10;;;;;;;51.43;18.90;;;3.70;99.90;;;;;;5092968;28;20089;-75
2022/11/14 04:19:35;;;;;;;51.50;19.03;;;3.70;99.90;;;;;;5092382;28;20057;-75
2022/11/14 04:22:01;;;;;;;47.50;19.70;;;3.60;99.90;;;;;;5093113;28;20351;-80
2022/11/14 04:24:27;;;;;;;52.43;20.00;;;3.50;99.90;;;;;;5094956;28;20035;-74
2022/11/14 04:26:53;;;;;;;51.33;18.83;;;3.60;99.90;;;;;;5093717;28;20453;-75
2022/11/14 04:29:18;;;;;;;46.47;18.53;;;3.60;99.90;;;;;;5094526;28;20032;-75
2022/11/14 04:31:44;;;;;;;55.33;19.97;;;3.60;99.90;;;;;;5093932;28;20121;-75
2022/11/14 04:34:10;;;;;;;49.93;19.03;;;3.50;99.90;;;;;;5094419;28;20482;-75
2022/11/14 04:36:35;;;;;;;54.97;20.37;;;3.50;99.90;;;;;;5094679;28;20020;-75
2022/11/14 04:39:01;;;;;;;51.07;19.57;;;3.50;99.90;;;;;;5089908;28;20023;-75
2022/11/14 04:41:27;;;;;;;44.23;18.23;;;3.40;99.90;;;;;;5092220;28;20059;-75
2022/11/14 04:43:52;;;;;;;51.47;19.37;;;3.40;99.90;;;;;;5094405;28;20089;-75
2022/11/14 04:46:18;;;;;;;47.90;17.83;;;3.40;99.90;;;;;;5094593;28;20422;-75
2022/11/14 04:48:43;;;;;;;44.33;18.50;;;3.40;99.90;;;;;;5092576;28;20028;-75
2022/11/14 04:51:09;;;;;;;39.73;17.40;;;3.40;99.90;;;;;;5095487;28;20028;-75
2022/11/14 04:53:35;;;;;;;44.23;17.73;;;3.20;99.90;;;;;;5092366;28;20036;-75
2022/11/14 04:56:00;;;;;;;45.80;17.27;;;3.10;99.90;;;;;;5095380;28;20047;-75
2022/11/14 04:58:26;;;;;;;40.53;15.27;;;3.20;99.90;;;;;;5092024;28;20342;-76
2022/11/14 05:00:52;;;;;;;42.20;17.00;;;3.10;99.90;;;;;;5092262;28;20571;-75
2022/11/14 05:03:18;;;;;;;48.60;17.50;;;3.10;99.90;;;;;;5097893;28;20024;-75
2022/11/14 05:05:43;;;;;;;43.57;16.30;;;3.10;99.90;;;;;;5093067;28;20852;-75
2022/11/14 05:08:09;;;;;;;45.80;18.60;;;3.00;99.90;;;;;;5098395;27;20311;-75
2022/11/14 05:10:35;;;;;;;35.60;13.07;;;3.10;99.90;;;;;;5085925;28;20027;-75
2022/11/14 05:13:00;;;;;;;45.33;18.10;;;3.10;99.90;;;;;;5093601;28;20024;-75
2022/11/14 05:15:26;;;;;;;45.93;16.80;;;3.10;99.90;;;;;;5086145;28;20016;-80
2022/11/14 05:17:52;;;;;;;43.73;16.83;;;3.10;99.90;;;;;;5088944;28;20046;-75
2022/11/14 05:20:17;;;;;;;46.87;19.63;;;3.10;99.90;;;;;;5091260;28;20077;-75
2022/11/14 05:22:43;;;;;;;35.37;14.07;;;3.10;99.90;;;;;;5093549;28;20107;-74
2022/11/14 05:25:09;;;;;;;50.13;21.07;;;3.00;99.90;;;;;;5093600;28;20056;-81
2022/11/14 05:27:35;;;;;;;50.83;18.50;;;3.10;99.90;;;;;;5089683;28;20028;-74
2022/11/14 05:30:00;;;;;;;34.87;13.63;;;3.00;99.90;;;;;;5094848;28;20024;-75
2022/11/14 05:32:26;;;;;;;49.00;19.17;;;3.00;99.90;;;;;;5089371;28;20057;-75
2022/11/14 05:34:51;;;;;;;48.40;17.93;;;3.00;99.90;;;;;;5091973;28;20452;-74
2022/11/14 05:37:17;;;;;;;46.40;17.27;;;3.00;99.90;;;;;;5088393;28;20028;-75
2022/11/14 05:39:43;;;;;;;35.87;13.37;;;3.00;99.90;;;;;;5090233;28;20115;-74
2022/11/14 05:42:08;;;;;;;56.97;19.17;;;3.00;99.90;;;;;;5089588;28;20027;-80
2022/11/14 05:44:34;;;;;;;51.17;17.90;;;2.90;99.90;;;;;;5091331;28;20024;-74
2022/11/14 05:47:00;;;;;;;47.43;17.47;;;3.00;99.90;;;;;;5091732;28;20016;-74
2022/11/14 05:49:25;;;;;;;42.93;16.53;;;3.00;99.90;;;;;;5091130;28;20030;-74
2022/11/14 05:51:51;;;;;;;47.43;17.77;;;3.00;99.90;;;;;;5095300;28;20024;-75
2022/11/14 05:54:17;;;;;;;53.33;18.15;;;3.00;99.90;;;;;;5089087;28;20024;-74
2022/11/14 05:56:42;;;;;;;52.27;18.80;;;3.10;99.90;;;;;;5092797;28;20055;-74
2022/11/14 05:59:08;;;;;;;49.87;18.77;;;3.30;99.90;;;;;;5092900;28;20032;-74
2022/11/14 06:01:33;;;;;;;55.83;19.37;;;3.30;99.90;;;;;;5094187;28;20079;-74
2022/11/14 06:03:59;;;;;;;51.07;18.40;;;3.30;99.90;;;;;;5094769;28;20043;-74
2022/11/14 06:06:25;;;;;;;47.90;20.10;;;3.30;99.90;;;;;;5093580;28;20024;-74
2022/11/14 06:08:52;;;;;;;55.40;17.87;;;3.30;99.90;;;;;;5093131;28;20024;-75
2022/11/14 06:11:19;;;;;;;41.85;17.55;;;3.20;99.90;;;;;;5093130;28;20108;-75
2022/11/14 06:13:46;;;;;;;53.90;17.98;;;3.20;99.90;;;;;;5092708;28;20093;-75
2022/11/14 06:16:14;;;;;;;51.47;17.92;;;3.30;99.90;;;;;;5090497;28;20427;-75
2022/11/14 06:18:40;;;;;;;44.22;18.23;;;3.30;99.90;;;;;;5089323;28;20296;-75
2022/11/14 06:21:15;;;;;;;43.58;16.88;;;3.20;99.90;;;;;;5092452;28;20028;-75
2022/11/14 06:23:41;;;;;;;54.08;19.40;;;3.10;99.90;;;;;;5093449;28;20032;-76
2022/11/14 06:26:22;;;;;;;51.73;18.90;;;3.10;99.90;;;;;;5092537;28;20581;-76
2022/11/14 06:28:49;;;;;;;57.35;21.20;;;3.10;99.90;;;;;;5090595;28;20028;-75
2022/11/14 06:31:15;;;;;;;45.50;17.63;;;3.10;99.90;;;;;;5092861;28;20020;-75
2022/11/14 06:33:41;;;;;;;39.95;17.30;;;3.20;99.90;;;;;;5092652;28;20410;-75
2022/11/14 06:36:07;;;;;;;50.60;19.77;;;3.20;99.90;;;;;;5093207;28;20028;-74
2022/11/14 06:38:35;;;;;;;46.95;18.25;;;3.20;99.90;;;;;;5092831;28;20426;-75
2022/11/14 06:41:06;;;;;;;46.00;16.10;;;3.20;99.90;;;;;;5092676;28;20423;-75
2022/11/14 06:43:33;;;;;;;45.55;17.77;;;3.10;99.90;;;;;;5093585;28;20040;-75
2022/11/14 06:45:59;;;;;;;45.17;17.30;;;3.10;99.90;;;;;;5092824;28;20064;-75
2022/11/14 06:48:25;;;;;;;47.23;17.47;;;3.20;99.90;;;;;;5092336;28;20067;-75
2022/11/14 06:50:55;;;;;;;46.83;17.60;;;3.10;99.90;;;;;;5091809;28;20365;-75
2022/11/14 06:53:21;;;;;;;51.45;17.30;;;3.20;99.90;;;;;;5093645;28;20111;-75
2022/11/14 06:56:04;;;;;;;39.03;17.50;;;3.10;99.90;;;;;;5092158;28;20032;-75
2022/11/14 06:58:35;;;;;;;45.10;16.65;;;3.10;99.90;;;;;;5090472;28;20987;-77
2022/11/14 07:01:15;;;;;;;48.75;17.02;;;3.10;99.90;;;;;;5092640;28;20052;-76
2022/11/14 07:03:41;;;;;;;47.28;16.83;;;3.10;99.90;;;;;;5093460;28;20032;-75
2022/11/14 07:06:09;;;;;;;40.47;18.50;;;3.10;99.90;;;;;;5093808;28;20027;-78
2022/11/14 07:08:34;;;;;;;40.30;17.15;;;3.20;99.90;;;;;;5092114;28;20422;-75
2022/11/14 07:11:09;;;;;;;34.43;12.20;;;3.20;99.90;;;;;;5087622;28;20024;-76
2022/11/14 07:13:35;;;;;;;49.35;16.85;;;3.10;99.90;;;;;;5093695;28;20098;-75
2022/11/14 07:16:02;;;;;;;45.60;17.48;;;3.20;99.90;;;;;;5090648;28;20023;-75
2022/11/14 07:18:32;;;;;;;40.25;17.10;;;3.10;99.90;;;;;;5088663;28;20036;-75
2022/11/14 07:21:04;;;;;;;40.85;17.42;;;3.20;99.90;;;;;;5089160;28;20035;-75
2022/11/14 07:23:33;;;;;;;48.53;16.05;;;3.10;99.90;;;;;;5085594;28;20032;-76
2022/11/14 07:26:06;;;;;;;41.10;17.67;;;3.20;99.90;;;;;;5090293;28;20484;-76
2022/11/14 07:28:38;;;;;;;45.85;17.05;;;3.20;99.90;;;;;;5098758;28;20032;-75
2022/11/14 07:31:05;;;;;;;45.53;15.55;;;3.30;99.90;;;;;;5081962;28;20031;-76
2022/11/14 07:33:32;;;;;;;47.58;15.38;;;3.30;99.90;;;;;;5090047;28;20028;-75
2022/11/14 07:35:58;;;;;;;47.25;16.60;;;3.40;99.90;;;;;;5092447;28;20032;-75
2022/11/14 07:38:24;;;;;;;39.83;16.35;;;3.50;99.90;;;;;;5093135;28;20042;-76
2022/11/14 07:41:01;;;;;;;40.67;16.30;;;3.60;99.90;;;;;;5091671;28;20038;-75
2022/11/14 07:43:27;;;;;;;50.78;16.88;;;3.60;99.90;;;;;;5091098;28;20056;-75
2022/11/14 07:45:53;;;;;;;44.95;16.55;;;3.60;99.90;;;;;;5092381;28;20058;-74
2022/11/14 07:48:20;;;;;;;43.60;16.97;;;3.70;99.90;;;;;;5084769;28;20044;-75
2022/11/14 07:50:46;;;;;;;53.65;16.40;;;3.80;99.90;;;;;;5084986;28;20078;-75
2022/11/14 07:53:15;;;;;;;37.60;15.63;;;3.80;99.90;;;;;;5086175;28;20369;-75
2022/11/14 07:55:41;;;;;;;38.40;15.32;;;3.90;99.90;;;;;;5083096;28;20025;-75
2022/11/14 07:58:07;;;;;;;40.53;15.73;;;4.00;99.90;;;;;;5086671;28;20028;-74
2022/11/14 08:00:32;;;;;;;44.20;15.43;;;4.00;99.90;;;;;;5088936;28;20326;-75
2022/11/14 08:02:58;;;;;;;43.00;15.80;;;4.10;99.90;;;;;;5090828;28;20078;-75
2022/11/14 08:05:24;;;;;;;30.10;11.97;;;4.10;99.90;;;;;;5089810;28;20028;-75
2022/11/14 08:07:51;;;;;;;36.73;13.67;;;4.20;99.90;;;;;;5080990;28;20327;-74
2022/11/14 08:10:17;;;;;;;41.28;15.70;;;4.20;99.90;;;;;;5084767;28;20103;-75
2022/11/14 08:12:43;;;;;;;40.17;14.90;;;4.30;99.90;;;;;;5068065;28;20089;-76
2022/11/14 08:15:11;;;;;;;37.20;14.50;;;4.30;99.90;;;;;;5092064;28;20031;-75
2022/11/14 08:17:37;;;;;;;37.08;14.77;;;4.40;99.90;;;;;;5084546;28;20032;-75
2022/11/14 08:20:04;;;;;;;24.83;8.77;;;4.40;99.90;;;;;;5089545;28;20402;-77
2022/11/14 08:22:30;;;;;;;38.88;14.38;;;4.50;99.90;;;;;;5088567;28;20679;-76
2022/11/14 08:24:56;;;;;;;37.58;13.88;;;4.50;99.90;;;;;;5089696;28;20170;-76
2022/11/14 08:27:23;;;;;;;39.35;13.70;;;4.60;99.90;;;;;;5088085;28;20035;-77
2022/11/14 08:29:50;;;;;;;42.65;16.15;;;4.70;99.90;;;;;;5094629;28;20039;-77
2022/11/14 08:32:16;;;;;;;36.42;13.40;;;4.70;99.90;;;;;;5094710;28;20023;-76
2022/11/14 08:34:42;;;;;;;34.92;14.45;;;4.70;99.90;;;;;;5096538;28;20043;-77
2022/11/14 08:37:07;;;;;;;39.67;14.90;;;4.80;99.90;;;;;;5094816;28;20020;-76
2022/11/14 08:39:33;;;;;;;36.28;14.82;;;4.80;99.90;;;;;;5095549;28;20024;-78
2022/11/14 08:41:58;;;;;;;32.87;13.83;;;4.80;99.90;;;;;;5091343;28;20103;-77
2022/11/14 08:44:24;;;;;;;27.23;11.37;;;4.90;99.90;;;;;;5095299;28;20027;-78
2022/11/14 08:46:50;;;;;;;37.07;14.97;;;4.90;99.90;;;;;;5094001;28;20057;-79
2022/11/14 08:49:15;;;;;;;35.53;15.97;;;4.90;99.90;;;;;;5093269;28;20032;-77
2022/11/14 08:51:41;;;;;;;30.33;10.63;;;5.00;99.90;;;;;;5095650;28;20036;-78
2022/11/14 08:54:07;;;;;;;41.53;15.87;;;5.00;99.90;;;;;;5087360;28;20415;-79
2022/11/14 08:56:32;;;;;;;35.43;12.97;;;5.00;99.90;;;;;;5095750;28;20030;-78
2022/11/14 08:58:58;;;;;;;37.93;13.80;;;5.10;99.90;;;;;;5091467;28;20016;-77
2022/11/14 09:01:24;;;;;;;36.40;14.87;;;5.20;99.90;;;;;;5090250;28;20044;-77
2022/11/14 09:03:50;;;;;;;34.00;14.53;;;5.20;99.90;;;;;;5094283;28;20120;-77
2022/11/14 09:06:15;;;;;;;31.67;13.13;;;5.20;99.90;;;;;;5095103;28;20051;-76
2022/11/14 09:08:41;;;;;;;33.63;14.37;;;5.30;99.90;;;;;;5087452;28;20032;-80
2022/11/14 09:11:07;;;;;;;30.83;11.90;;;5.30;99.90;;;;;;5092793;28;20035;-80
2022/11/14 09:13:34;;;;;;;35.87;14.73;;;5.40;99.90;;;;;;5087905;28;20115;-78
2022/11/14 09:16:00;;;;;;;34.60;13.93;;;5.40;99.90;;;;;;5090031;28;20093;-77
2022/11/14 09:18:26;;;;;;;31.73;13.35;;;5.50;99.90;;;;;;5085590;28;20020;-77
2022/11/14 09:20:51;;;;;;;27.20;11.83;;;5.60;99.90;;;;;;5067332;28;20152;-79
2022/11/14 09:23:17;;;;;;;29.67;12.40;;;5.70;99.90;;;;;;5091470;28;20031;-77
2022/11/14 09:25:43;;;;;;;29.83;13.30;;;5.80;99.90;;;;;;5096435;28;20035;-78
2022/11/14 09:28:09;;;;;;;28.87;13.47;;;5.90;99.90;;;;;;5094657;28;20322;-79
2022/11/14 09:30:35;;;;;;;29.67;12.67;;;5.90;99.90;;;;;;5094788;28;20024;-77
2022/11/14 09:33:02;;;;;;;33.17;13.43;;;6.00;99.90;;;;;;5094422;28;20032;-77
2022/11/14 09:35:29;;;;;;;27.80;12.65;;;6.10;99.90;;;;;;5092434;28;20024;-78
2022/11/14 09:38:06;;;;;;;31.95;11.65;;;6.20;99.90;;;;;;5093442;28;20059;-78
2022/11/14 09:40:50;;;;;;;30.23;13.35;;;6.30;99.90;;;;;;5092710;28;20025;-77
2022/11/14 09:43:29;;;;;;;32.83;13.80;;;6.30;99.90;;;;;;5088979;28;20107;-77
2022/11/14 09:45:55;;;;;;;27.48;11.82;;;6.40;99.90;;;;;;5090962;28;20108;-76
2022/11/14 09:48:26;;;;;;;26.17;12.73;;;6.50;99.90;;;;;;5093492;28;20115;-77
2022/11/14 09:51:32;;;;;;;24.13;11.13;;;6.60;99.90;;;;;;5092351;28;20655;-76
2022/11/14 09:54:10;;;;;;;;;;;6.70;99.90;;;;;;5091335;28;20063;-76
2022/11/14 09:56:35;;;;;;;30.55;12.25;;;6.80;99.90;;;;;;5094583;28;19953;-76
2022/11/14 09:59:01;;;;;;;30.27;13.30;;;6.90;99.90;;;;;;5093921;28;20027;-76
2022/11/14 10:01:34;;;;;;;26.20;11.20;;;7.00;99.90;;;;;;5090577;28;20052;-77
2022/11/14 10:04:16;;;;;;;26.50;12.00;;;7.00;99.90;;;;;;5094133;28;20363;-77
2022/11/14 10:06:48;;;;;;;26.52;11.98;;;7.10;99.90;;;;;;5091768;28;20783;-82
2022/11/14 10:09:32;;;;;;;27.23;11.63;;;7.30;99.90;;;;;;5091422;28;20036;-77
2022/11/14 10:12:17;;;;;;;27.27;11.57;;;7.40;99.90;;;;;;5090632;28;20085;-76
2022/11/14 10:14:51;;;;;;;22.27;10.05;;;7.40;99.90;;;;;;5091417;28;20062;-75
2022/11/14 10:18:01;;;;;;;23.77;10.93;;;7.50;99.90;;;;;;5086573;28;20050;-77
2022/11/14 10:20:45;;;;;;;23.10;11.05;;;7.60;99.90;;;;;;5083193;28;20040;-76
2022/11/14 10:23:16;;;;;;;27.63;11.75;;;7.70;99.90;;;;;;5070827;28;20032;-77
2022/11/14 10:26:18;;;;;;;23.77;11.02;;;7.80;99.90;;;;;;5074235;28;20032;-76
2022/11/14 10:29:01;;;;;;;23.45;10.98;;;7.90;99.90;;;;;;5088688;28;20032;-77
2022/11/14 10:31:32;;;;;;;22.85;10.48;;;7.90;99.90;;;;;;5091989;28;20028;-77
2022/11/14 10:34:03;;;;;;;25.63;11.15;;;7.90;99.90;;;;;;5083584;28;20107;-76
2022/11/14 10:36:46;;;;;;;19.35;9.75;;;8.00;99.90;;;;;;5072149;28;20126;-75
2022/11/14 10:39:22;;;;;;;22.60;10.25;;;8.10;99.90;;;;;;5086058;28;20024;-76
2022/11/14 10:41:54;;;;;;;19.65;10.73;;;8.10;99.90;;;;;;5073454;28;20403;-76
2022/11/14 10:44:25;;;;;;;21.73;10.07;;;8.10;99.90;;;;;;5071421;28;20131;-76
2022/11/14 10:46:55;;;;;;;19.13;9.45;;;8.20;99.90;;;;;;5084931;28;20342;-75
2022/11/14 10:49:23;;;;;;;18.70;9.43;;;8.20;99.90;;;;;;5088969;28;20434;-75
2022/11/14 10:51:56;;;;;;;22.90;10.93;;;8.30;99.90;;;;;;5088732;28;20432;-76
2022/11/14 10:54:42;;;;;;;20.40;11.18;;;8.40;99.90;;;;;;5085093;28;20028;-75
2022/11/14 10:57:19;;;;;;;23.20;10.10;;;8.50;99.90;;;;;;5091281;28;20039;-76
2022/11/14 10:59:46;;;;;;;17.17;9.57;;;8.60;99.90;;;;;;5092407;28;20763;-75
2022/11/14 11:02:12;;;;;;;20.10;10.00;;;8.60;99.90;;;;;;5097284;28;20051;-78
2022/11/14 11:04:40;;;;;;;18.38;9.68;;;8.70;99.90;;;;;;5093077;28;20069;-75
2022/11/14 11:07:06;;;;;;;23.25;10.18;;;8.70;99.90;;;;;;5092595;28;20028;-73
2022/11/14 11:12:35;;;;;;;21.42;8.50;;;8.90;99.90;;;;;;5091195;28;20036;-75
2022/11/14 11:15:23;;;;;;;18.38;9.68;;;9.00;99.90;;;;;;5092802;28;20018;-75
2022/11/14 11:17:56;;;;;;;25.20;10.18;;;9.00;99.90;;;;;;5090192;28;20450;-75
2022/11/14 11:20:40;;;;;;;18.05;8.65;;;9.10;99.90;;;;;;5091797;28;20032;-79
2022/11/14 11:23:09;;;;;;;20.02;9.30;;;9.20;99.90;;;;;;5087791;28;20032;-76
2022/11/14 11:25:36;;;;;;;20.13;9.38;;;9.30;99.90;;;;;;5092292;28;20126;-76
2022/11/14 11:28:05;;;;;;;16.63;9.27;;;9.40;99.90;;;;;;5094625;28;20070;-75
2022/11/14 11:30:31;;;;;;;17.08;9.43;;;9.50;99.90;;;;;;5088750;28;20035;-75
2022/11/14 11:33:13;;;;;;;16.13;8.10;;;9.50;99.90;;;;;;5092653;28;20024;-76
2022/11/14 11:35:40;;;;;;;19.65;9.50;;;9.50;99.90;;;;;;5092250;28;20027;-76
2022/11/14 11:38:07;;;;;;;;;;;9.60;99.90;;;;;;5094239;28;20292;-79
2022/11/14 11:40:33;;;;;;;19.35;7.78;;;9.70;99.90;;;;;;5085594;28;19915;-79
2022/11/14 11:43:20;;;;;;;18.57;9.60;;;9.80;99.90;;;;;;5092210;28;20035;-76
2022/11/14 11:45:48;;;;;;;18.20;9.75;;;9.90;99.90;;;;;;5088476;28;20036;-75
2022/11/14 11:48:20;;;;;;;19.15;9.02;;;9.90;99.90;;;;;;5087354;28;20358;-76
2022/11/14 11:50:47;;;;;;;17.50;9.38;;;9.90;99.90;;;;;;5091776;28;20479;-75
2022/11/14 11:53:37;;;;;;;17.83;8.73;;;10.00;99.90;;;;;;5092005;28;20410;-76
2022/11/14 11:56:13;;;;;;;16.25;9.27;;;10.10;99.90;;;;;;5087991;28;20024;-76
2022/11/14 11:58:46;;;;;;;18.52;9.45;;;10.10;99.90;;;;;;5091301;28;20410;-76
2022/11/14 12:01:13;;;;;;;16.17;8.70;;;10.10;99.90;;;;;;5086814;28;20052;-76
2022/11/14 12:03:46;;;;;;;19.55;9.27;;;10.20;99.90;;;;;;5095488;28;20032;-76
2022/11/14 12:06:16;;;;;;;21.13;10.02;;;10.30;99.90;;;;;;5094461;28;20028;-80
2022/11/14 12:09:00;;;;;;;21.52;8.55;;;10.30;99.90;;;;;;5095708;28;20035;-75
2022/11/14 12:11:29;;;;;;;18.92;8.80;;;10.30;99.90;;;;;;5090608;28;20035;-76
2022/11/14 12:14:03;;;;;;;18.70;9.23;;;10.30;99.90;;;;;;5096944;28;20024;-75
2022/11/14 12:16:53;;;;;;;18.65;8.55;;;10.30;99.90;;;;;;5091882;28;20012;-76
2022/11/14 12:20:17;;;;;;;18.63;9.55;;;10.30;99.90;;;;;;5086499;28;20020;-76
2022/11/14 12:23:02;;;;;;;16.20;8.65;;;10.40;99.90;;;;;;5073980;28;20114;-76
2022/11/14 12:25:45;;;;;;;20.02;9.23;;;10.40;99.90;;;;;;5093533;28;20377;-76
2022/11/14 12:28:31;;;;;;;17.02;9.00;;;10.40;99.90;;;;;;5092328;28;20020;-76
2022/11/14 12:31:00;;;;;;;19.10;9.95;;;10.50;99.90;;;;;;5093876;28;20054;-76
2022/11/14 12:33:31;;;;;;;15.20;8.68;;;10.60;99.90;;;;;;5093776;28;20028;-76
2022/11/14 12:36:00;;;;;;;20.23;9.68;;;10.60;99.90;;;;;;5085672;28;20039;-75
2022/11/14 12:38:33;;;;;;;15.27;8.60;;;10.60;99.90;;;;;;5087798;28;20043;-76
2022/11/14 12:41:00;;;;;;;15.10;9.70;;;10.70;99.90;;;;;;5087921;28;20736;-75
2022/11/14 12:43:37;;;;;;;17.35;9.77;;;10.70;99.90;;;;;;5087303;28;20127;-76
2022/11/14 12:46:08;;;;;;;16.83;9.02;;;10.70;99.90;;;;;;5085495;28;20041;-75
2022/11/14 12:48:45;;;;;;;17.05;9.63;;;10.70;99.90;;;;;;5088823;28;20024;-76